createdAt,value
2022-08-12T00:08:28.842Z,2.97
2022-08-12T00:11:21.650Z,2.80
2022-08-12T00:14:07.069Z,3.13
2022-08-12T00:16:52.388Z,3.60
2022-08-12T00:19:38.085Z,3.07
2022-08-12T00:22:24.136Z,3.00
2022-08-12T00:25:15.874Z,3.00
2022-08-12T00:28:02.724Z,3.30
2022-08-12T00:30:48.122Z,3.00
2022-08-12T00:33:51.784Z,3.07
2022-08-12T00:36:46.242Z,3.27
2022-08-12T00:39:35.711Z,3.20
2022-08-12T00:42:12.370Z,3.10
2022-08-12T00:44:44.341Z,3.10
2022-08-12T00:47:25.457Z,3.43
2022-08-12T00:49:55.785Z,3.30
2022-08-12T00:52:24.591Z,2.90
2022-08-12T00:54:57.477Z,3.00
2022-08-12T00:57:30.073Z,3.07
2022-08-12T00:59:59.701Z,3.00
2022-08-12T01:02:32.570Z,3.60
2022-08-12T01:05:27.149Z,2.83
2022-08-12T01:08:13.846Z,3.13
2022-08-12T01:11:02.142Z,3.10
2022-08-12T01:13:31.332Z,3.93
2022-08-12T01:16:00.036Z,3.20
2022-08-12T01:18:30.752Z,3.30
2022-08-12T01:21:12.907Z,3.20
2022-08-12T01:24:30.004Z,3.50
2022-08-12T01:26:55.972Z,3.00
2022-08-12T01:29:33.271Z,3.20
2022-08-12T01:32:08.727Z,3.80
2022-08-12T01:34:39.711Z,3.07
2022-08-12T01:37:09.077Z,3.10
2022-08-12T01:40:35.888Z,2.93
2022-08-12T01:42:51.977Z,3.60
2022-08-12T01:45:24.754Z,3.57
2022-08-12T01:47:54.904Z,3.33
2022-08-12T01:50:54.596Z,3.23
2022-08-12T01:53:50.416Z,3.27
2022-08-12T01:56:22.098Z,3.10
2022-08-12T01:59:12.383Z,3.00
2022-08-12T02:01:41.706Z,2.97
2022-08-12T02:04:33.325Z,3.20
2022-08-12T02:07:22.100Z,3.43
2022-08-12T02:10:50.058Z,3.10
2022-08-12T02:13:48.297Z,3.00
2022-08-12T02:16:41.481Z,3.00
2022-08-12T02:19:27.100Z,3.00
2022-08-12T02:22:14.601Z,3.07
2022-08-12T02:24:44.140Z,3.30
2022-08-12T02:27:13.793Z,3.23
2022-08-12T02:29:41.118Z,3.27
2022-08-12T02:32:08.789Z,2.97
2022-08-12T02:34:36.036Z,2.70
2022-08-12T02:37:04.013Z,2.80
2022-08-12T02:39:34.017Z,2.97
2022-08-12T02:42:03.711Z,2.70
2022-08-12T02:44:36.296Z,2.97
2022-08-12T02:47:06.395Z,3.53
2022-08-12T02:49:41.482Z,3.37
2022-08-12T02:52:10.277Z,3.10
2022-08-12T02:54:39.408Z,3.27
2022-08-12T02:57:06.429Z,3.70
2022-08-12T02:59:35.727Z,3.30
2022-08-12T03:02:03.675Z,3.10
2022-08-12T03:04:43.655Z,3.30
2022-08-12T03:07:14.514Z,2.97
2022-08-12T03:10:05.160Z,3.10
2022-08-12T03:12:40.085Z,3.20
2022-08-12T03:15:18.441Z,3.10
2022-08-12T03:18:24.184Z,3.90
2022-08-12T03:20:40.388Z,3.40
2022-08-12T03:23:28.662Z,3.07
2022-08-12T03:25:59.530Z,3.30
2022-08-12T03:28:46.838Z,3.80
2022-08-12T03:31:13.989Z,3.30
2022-08-12T03:33:45.592Z,3.37
2022-08-12T03:36:29.892Z,3.10
2022-08-12T03:39:16.000Z,3.20
2022-08-12T03:42:22.226Z,3.00
2022-08-12T03:45:16.552Z,3.07
2022-08-12T03:48:23.983Z,3.40
2022-08-12T03:51:10.730Z,3.37
2022-08-12T03:53:56.444Z,3.17
2022-08-12T03:56:42.016Z,3.10
2022-08-12T03:59:27.655Z,3.20
2022-08-12T04:01:58.293Z,3.50
2022-08-12T04:04:35.612Z,3.40
2022-08-12T04:07:10.268Z,3.30
2022-08-12T04:09:40.443Z,3.30
2022-08-12T04:12:26.890Z,3.30
2022-08-12T04:15:00.763Z,3.27
2022-08-12T04:17:28.783Z,3.30
2022-08-12T04:19:59.869Z,3.50
2022-08-12T04:22:30.384Z,3.13
2022-08-12T04:25:01.430Z,3.30
2022-08-12T04:27:31.468Z,3.33
2022-08-12T04:30:21.409Z,3.60
2022-08-12T04:32:48.250Z,3.30
2022-08-12T04:35:18.651Z,3.47
2022-08-12T04:37:59.527Z,3.50
2022-08-12T04:40:33.185Z,3.27
2022-08-12T04:43:01.675Z,3.17
2022-08-12T04:48:19.508Z,3.40
2022-08-12T04:50:48.186Z,3.33
2022-08-12T04:53:15.304Z,3.37
2022-08-12T04:55:43.141Z,3.10
2022-08-12T04:58:10.597Z,3.40
2022-08-12T05:00:38.337Z,3.30
2022-08-12T05:03:07.221Z,3.30
2022-08-12T05:05:36.311Z,3.10
2022-08-12T05:08:07.646Z,3.50
2022-08-12T05:10:35.669Z,3.30
2022-08-12T05:13:07.492Z,3.50
2022-08-12T05:15:37.800Z,4.13
2022-08-12T05:18:24.822Z,3.50
2022-08-12T05:20:53.440Z,3.20
2022-08-12T05:23:22.249Z,3.67
2022-08-12T05:25:51.322Z,3.70
2022-08-12T05:28:18.660Z,3.83
2022-08-12T05:30:46.708Z,3.50
2022-08-12T05:33:15.854Z,3.50
2022-08-12T05:35:45.369Z,3.63
2022-08-12T05:38:33.197Z,3.70
2022-08-12T05:41:01.411Z,3.47
2022-08-12T05:43:29.039Z,3.50
2022-08-12T05:45:56.014Z,3.90
2022-08-12T05:48:23.422Z,4.00
2022-08-12T05:50:52.656Z,3.90
2022-08-12T05:53:19.968Z,4.00
2022-08-12T05:55:46.912Z,3.77
2022-08-12T05:58:13.798Z,3.60
2022-08-12T06:00:42.419Z,3.60
2022-08-12T06:03:09.379Z,3.70
2022-08-12T06:05:51.978Z,3.73
2022-08-12T06:08:22.999Z,3.50
2022-08-12T06:10:50.444Z,4.03
2022-08-12T06:13:27.898Z,3.80
2022-08-12T06:16:09.902Z,3.73
2022-08-12T06:18:40.822Z,3.33
2022-08-12T06:21:09.485Z,3.60
2022-08-12T06:23:42.442Z,3.70
2022-08-12T06:26:11.709Z,4.10
2022-08-12T06:28:39.580Z,4.20
2022-08-12T06:31:25.184Z,3.87
2022-08-12T06:33:59.791Z,3.83
2022-08-12T06:36:40.798Z,3.63
2022-08-12T06:39:14.782Z,3.40
2022-08-12T06:42:22.685Z,3.90
2022-08-12T06:44:50.459Z,3.60
2022-08-12T06:47:19.714Z,3.63
2022-08-12T06:49:49.611Z,3.60
2022-08-12T06:52:43.965Z,3.70
2022-08-12T06:55:20.216Z,3.70
2022-08-12T06:58:18.927Z,3.40
2022-08-12T07:00:47.594Z,3.50
2022-08-12T07:03:22.805Z,3.57
2022-08-12T07:05:50.896Z,3.73
2022-08-12T07:08:18.608Z,3.50
2022-08-12T07:10:59.367Z,3.40
2022-08-12T07:13:32.583Z,3.37
2022-08-12T07:15:59.626Z,4.13
2022-08-12T07:18:37.112Z,3.70
2022-08-12T07:21:06.350Z,3.60
2022-08-12T07:23:35.624Z,3.73
2022-08-12T07:26:08.163Z,3.57
2022-08-12T07:28:50.430Z,3.60
2022-08-12T07:31:26.958Z,3.80
2022-08-12T07:33:56.748Z,3.53
2022-08-12T07:36:27.439Z,3.67
2022-08-12T07:39:01.178Z,3.70
2022-08-12T07:41:31.663Z,3.73
2022-08-12T07:44:11.494Z,3.80
2022-08-12T07:47:00.221Z,3.53
2022-08-12T07:49:28.207Z,3.23
2022-08-12T07:54:25.567Z,3.70
2022-08-12T07:56:53.080Z,3.50
2022-08-12T07:59:20.047Z,3.08
2022-08-12T08:02:03.599Z,3.40
2022-08-12T08:05:03.949Z,2.72
2022-08-12T08:07:31.199Z,3.20
2022-08-12T08:10:03.914Z,2.65
2022-08-12T08:13:08.412Z,2.78
2022-08-12T08:18:26.294Z,3.00
2022-08-12T08:20:56.964Z,2.88
2022-08-12T08:23:46.485Z,3.03
2022-08-12T08:26:24.874Z,3.00
2022-08-12T08:28:52.937Z,2.83
2022-08-12T08:31:22.300Z,3.15
2022-08-12T08:34:04.833Z,2.95
2022-08-12T08:36:54.368Z,3.03
2022-08-12T08:39:27.374Z,3.20
2022-08-12T08:42:18.641Z,2.97
2022-08-12T08:45:01.385Z,2.83
2022-08-12T08:47:28.267Z,2.90
2022-08-12T08:50:01.053Z,2.60
2022-08-12T08:52:38.888Z,2.72
2022-08-12T08:55:13.965Z,2.70
2022-08-12T08:58:08.985Z,3.20
2022-08-12T09:00:39.889Z,2.85
2022-08-12T09:04:21.545Z,2.67
2022-08-12T09:06:06.844Z,3.10
2022-08-12T09:17:57.172Z,3.42
2022-08-12T09:20:29.797Z,3.13
2022-08-12T09:23:57.479Z,3.60
2022-08-12T09:26:04.484Z,3.88
2022-08-12T09:28:38.057Z,3.80
2022-08-12T09:34:26.846Z,3.75
2022-08-12T09:37:00.103Z,3.88
2022-08-12T09:41:03.835Z,3.53
2022-08-12T09:43:24.970Z,3.70
2022-08-12T09:46:22.118Z,3.60
2022-08-12T09:49:16.531Z,3.92
2022-08-12T09:52:13.272Z,4.78
2022-08-12T09:54:48.234Z,4.32
2022-08-12T09:58:46.680Z,4.00
2022-08-12T10:00:19.569Z,4.15
2022-08-12T10:07:41.774Z,4.80
2022-08-12T10:10:22.590Z,4.22
2022-08-12T10:13:35.082Z,4.55
2022-08-12T10:16:45.171Z,4.55
2022-08-12T10:19:54.869Z,4.65
2022-08-12T10:22:36.875Z,5.15
2022-08-12T10:30:11.933Z,4.38
2022-08-12T10:32:42.908Z,4.80
2022-08-12T10:35:37.838Z,4.70
2022-08-12T10:38:38.528Z,4.80
2022-08-12T10:41:19.161Z,4.72
2022-08-12T10:43:54.326Z,4.60
2022-08-12T10:46:30.979Z,4.72
2022-08-12T10:49:06.340Z,5.05
2022-08-12T10:52:33.367Z,4.85
2022-08-12T10:54:40.241Z,4.65
2022-08-12T10:57:09.148Z,5.20
2022-08-12T11:00:32.505Z,5.30
2022-08-12T11:04:23.836Z,5.85
2022-08-12T11:07:03.642Z,5.57
2022-08-12T11:08:37.849Z,5.70
2022-08-12T11:11:13.408Z,6.00
2022-08-12T11:13:46.731Z,5.65
2022-08-12T11:17:34.711Z,5.60
2022-08-12T11:19:49.795Z,5.70
2022-08-12T11:22:24.022Z,5.80
2022-08-12T11:27:40.089Z,5.22
2022-08-12T11:32:47.192Z,5.88
2022-08-12T11:35:14.456Z,5.90
2022-08-12T11:40:36.780Z,5.95
2022-08-12T11:43:25.821Z,5.72
2022-08-12T11:45:58.245Z,6.10
2022-08-12T11:48:26.889Z,6.38
2022-08-12T11:50:54.999Z,6.45
2022-08-12T11:53:59.470Z,6.07
2022-08-12T11:56:11.452Z,6.40
2022-08-12T12:04:57.819Z,7.18
2022-08-12T12:08:36.363Z,6.30
2022-08-12T12:10:23.694Z,6.43
2022-08-12T12:26:35.593Z,6.18
2022-08-12T12:30:19.517Z,6.60
2022-08-12T12:32:53.317Z,6.35
2022-08-12T12:36:17.068Z,7.55
2022-08-12T12:38:51.156Z,8.00
2022-08-12T13:14:12.862Z,6.35
2022-08-12T13:17:21.390Z,6.15
2022-08-12T13:19:49.918Z,6.63
2022-08-12T13:22:21.055Z,6.47
2022-08-12T13:24:56.241Z,6.05
2022-08-12T13:31:22.274Z,6.38
2022-08-12T13:37:01.790Z,6.75
2022-08-12T13:39:42.481Z,6.70
2022-08-12T13:42:45.045Z,6.30
2022-08-12T13:45:13.639Z,7.43
2022-08-12T13:48:14.748Z,7.55
2022-08-12T13:50:46.863Z,7.00
2022-08-12T13:53:54.807Z,7.78
2022-08-12T13:56:18.964Z,7.72
2022-08-12T13:59:26.949Z,8.10
2022-08-12T14:02:29.078Z,7.85
2022-08-12T14:05:02.903Z,7.72
2022-08-12T14:10:50.690Z,7.90
2022-08-12T14:14:05.885Z,7.88
2022-08-12T14:16:14.409Z,8.15
2022-08-12T14:18:44.763Z,8.13
2022-08-12T14:21:18.177Z,7.40
2022-08-12T14:24:05.541Z,8.02
2022-08-12T14:29:56.112Z,7.82
2022-08-12T14:32:17.772Z,7.70
2022-08-12T14:34:47.237Z,7.75
2022-08-12T14:37:57.744Z,7.53
2022-08-12T14:43:08.124Z,7.63
2022-08-12T14:56:26.242Z,7.95
2022-08-12T14:57:20.361Z,7.63
2022-08-12T15:00:10.254Z,7.45
2022-08-12T15:02:40.145Z,7.63
2022-08-12T15:05:08.207Z,7.35
2022-08-12T15:07:50.068Z,7.45
2022-08-12T15:10:34.294Z,7.30
2022-08-12T15:13:11.634Z,7.57
2022-08-12T15:16:06.020Z,7.32
2022-08-12T15:18:34.767Z,7.43
2022-08-12T15:21:05.468Z,7.60
2022-08-12T15:23:45.682Z,7.60
2022-08-12T15:26:38.966Z,7.35
2022-08-12T15:29:22.894Z,7.78
2022-08-12T15:31:59.809Z,8.13
2022-08-12T15:34:33.443Z,7.28
2022-08-12T15:40:00.851Z,7.93
2022-08-12T15:42:35.147Z,7.90
2022-08-12T15:45:02.540Z,8.38
2022-08-12T15:47:49.911Z,8.60
2022-08-12T15:50:22.999Z,9.68
2022-08-12T15:52:54.570Z,10.52
2022-08-12T15:55:46.159Z,9.90
2022-08-12T15:58:16.738Z,10.18
2022-08-12T16:00:43.993Z,10.05
2022-08-12T16:03:14.190Z,10.75
2022-08-12T16:06:11.951Z,10.45
2022-08-12T16:08:41.528Z,10.88
2022-08-12T16:11:14.968Z,9.80
2022-08-12T16:13:45.508Z,9.73
2022-08-12T16:16:22.651Z,9.90
2022-08-12T16:18:56.360Z,9.17
2022-08-12T16:21:51.847Z,9.53
2022-08-12T16:24:25.161Z,10.00
2022-08-12T16:26:54.191Z,9.03
2022-08-12T16:29:38.544Z,9.33
2022-08-12T16:32:23.188Z,9.83
2022-08-12T16:34:55.631Z,8.90
2022-08-12T16:38:04.888Z,8.93
2022-08-12T16:40:12.101Z,9.60
2022-08-12T16:42:42.227Z,10.60
2022-08-12T16:46:23.861Z,9.17
2022-08-12T16:48:35.209Z,9.53
2022-08-12T16:51:11.835Z,9.73
2022-08-12T16:53:43.418Z,9.00
2022-08-12T16:56:14.767Z,9.00
2022-08-12T17:01:36.731Z,8.70
2022-08-12T17:04:09.139Z,8.93
2022-08-12T17:06:52.774Z,9.50
2022-08-12T17:09:20.060Z,9.67
2022-08-12T17:11:49.751Z,9.67
2022-08-12T17:14:23.131Z,9.80
2022-08-12T17:20:37.515Z,9.80
2022-08-12T17:23:33.396Z,9.77
2022-08-12T17:26:16.313Z,10.33
2022-08-12T17:28:52.202Z,10.13
2022-08-12T17:31:59.821Z,10.77
2022-08-12T17:34:17.056Z,10.17
2022-08-12T17:36:44.671Z,10.00
2022-08-12T17:39:15.646Z,10.43
2022-08-12T17:41:55.785Z,10.97
2022-08-12T17:44:24.077Z,11.43
2022-08-12T17:46:53.795Z,11.43
2022-08-12T17:50:02.191Z,12.30
2022-08-12T17:52:10.071Z,13.03
2022-08-12T17:54:37.728Z,12.00
2022-08-12T17:57:16.017Z,11.97
2022-08-12T17:59:49.008Z,12.33
2022-08-12T18:02:17.897Z,13.30
2022-08-12T18:05:04.759Z,12.37
2022-08-12T18:07:39.194Z,13.80
2022-08-12T18:10:06.949Z,13.70
2022-08-12T18:12:52.332Z,14.07
2022-08-12T18:15:47.764Z,13.73
2022-08-12T18:18:16.699Z,14.93
2022-08-12T18:20:45.169Z,13.47
2022-08-12T18:23:12.376Z,14.90
2022-08-12T18:26:16.605Z,15.00
2022-08-12T18:28:48.356Z,14.80
2022-08-12T18:31:18.060Z,14.57
2022-08-12T18:33:46.433Z,14.43
2022-08-12T18:36:14.107Z,13.93
2022-08-12T18:38:44.851Z,14.80
2022-08-12T18:41:33.678Z,14.40
2022-08-12T18:44:06.867Z,14.33
2022-08-12T18:46:54.090Z,15.97
2022-08-12T18:49:39.257Z,15.80
2022-08-12T18:52:08.634Z,15.57
2022-08-12T18:54:52.937Z,16.03
2022-08-12T18:57:45.586Z,15.40
2022-08-12T19:00:22.173Z,15.47
2022-08-12T19:02:53.372Z,15.60
2022-08-12T19:05:20.855Z,16.30
2022-08-12T19:08:00.708Z,15.20
2022-08-12T19:10:30.714Z,15.43
2022-08-12T19:13:23.216Z,15.50
2022-08-12T19:15:53.577Z,15.87
2022-08-12T19:18:22.333Z,15.37
2022-08-12T19:20:50.730Z,15.53
2022-08-12T19:23:21.509Z,15.70
2022-08-12T19:25:55.439Z,16.03
2022-08-12T19:28:30.110Z,15.47
2022-08-12T19:31:55.682Z,15.87
2022-08-12T19:37:22.658Z,16.40
2022-08-12T19:40:10.248Z,16.33
2022-08-12T19:42:53.717Z,16.10
2022-08-12T19:45:43.426Z,16.50
2022-08-12T19:48:17.477Z,16.87
2022-08-12T19:50:49.815Z,17.37
2022-08-12T19:53:18.649Z,16.10
2022-08-12T19:55:51.782Z,14.93
2022-08-12T19:58:20.418Z,16.27
2022-08-12T20:00:53.542Z,15.67
2022-08-12T20:03:38.252Z,13.17
2022-08-12T20:06:18.243Z,13.57
2022-08-12T20:08:56.735Z,12.73
2022-08-12T20:12:10.131Z,13.47
2022-08-12T20:14:18.573Z,14.47
2022-08-12T20:16:52.902Z,15.07
2022-08-12T20:19:28.580Z,14.93
2022-08-12T20:22:23.504Z,14.77
2022-08-12T20:24:55.351Z,15.27
2022-08-12T20:27:29.755Z,14.83
2022-08-12T20:30:14.148Z,16.07
2022-08-12T20:32:58.571Z,15.40
2022-08-12T20:35:39.111Z,14.60
2022-08-12T20:38:26.993Z,14.43
2022-08-12T20:40:55.734Z,15.17
2022-08-12T20:43:27.981Z,15.93
2022-08-12T20:45:57.951Z,15.10
2022-08-12T20:48:28.767Z,15.47
2022-08-12T20:50:57.981Z,15.60
2022-08-12T20:53:57.823Z,16.00
2022-08-12T20:56:37.833Z,16.23
2022-08-12T20:59:10.468Z,16.47
2022-08-12T21:01:47.449Z,16.80
2022-08-12T21:04:36.655Z,16.53
2022-08-12T21:07:09.356Z,15.87
2022-08-12T21:09:42.106Z,15.77
2022-08-12T21:12:28.178Z,16.87
2022-08-12T21:15:16.921Z,16.00
2022-08-12T21:18:01.185Z,16.27
2022-08-12T21:20:32.689Z,17.13
2022-08-12T21:22:59.652Z,15.93
2022-08-12T21:25:35.903Z,16.90
2022-08-12T21:28:12.473Z,16.93
2022-08-12T21:31:10.749Z,16.03
2022-08-12T21:33:31.573Z,16.33
2022-08-12T21:36:01.004Z,16.20
2022-08-12T21:38:34.583Z,15.30
2022-08-12T21:41:06.974Z,14.67
2022-08-12T21:43:44.862Z,15.70
2022-08-12T21:46:35.245Z,15.07
2022-08-12T21:49:05.203Z,12.50
2022-08-12T21:51:49.025Z,12.70
2022-08-12T21:54:21.885Z,11.97
2022-08-12T21:56:50.555Z,12.17
2022-08-12T21:59:18.105Z,12.13
2022-08-12T22:01:48.449Z,12.67
2022-08-12T22:04:35.851Z,12.80
2022-08-12T22:07:06.209Z,12.47
2022-08-12T22:09:42.734Z,12.77
2022-08-12T22:12:29.532Z,12.00
2022-08-12T22:14:56.515Z,11.93
2022-08-12T22:17:49.907Z,11.63
2022-08-12T22:20:17.634Z,10.90
2022-08-12T22:22:53.915Z,10.50
2022-08-12T22:25:24.339Z,10.53
2022-08-12T22:28:17.401Z,10.53
2022-08-12T22:31:09.832Z,9.97
2022-08-12T22:33:53.952Z,9.43
2022-08-12T22:36:29.189Z,10.50
2022-08-12T22:38:58.115Z,10.00
2022-08-12T22:41:44.844Z,11.27
2022-08-12T22:44:31.654Z,10.50
2022-08-12T22:47:54.230Z,10.63
2022-08-12T22:50:27.960Z,10.63
2022-08-12T22:53:14.701Z,10.47
2022-08-12T22:56:05.691Z,10.90
2022-08-12T22:58:33.715Z,10.97
2022-08-12T23:01:01.799Z,11.30
2022-08-12T23:03:49.336Z,11.30
2022-08-12T23:06:23.779Z,11.03
2022-08-12T23:08:51.581Z,10.97
2022-08-12T23:11:23.625Z,11.10
2022-08-12T23:13:56.932Z,11.03
2022-08-12T23:16:31.071Z,11.10
2022-08-12T23:19:10.392Z,11.43
2022-08-12T23:22:05.322Z,12.17
2022-08-12T23:24:55.788Z,11.20
2022-08-12T23:27:50.718Z,10.90
2022-08-12T23:30:25.142Z,12.33
2022-08-12T23:33:00.032Z,11.80
2022-08-12T23:35:28.420Z,12.87
2022-08-12T23:38:30.144Z,11.50
2022-08-12T23:40:59.758Z,11.40
2022-08-12T23:43:39.238Z,11.30
2022-08-12T23:46:08.691Z,11.53
2022-08-12T23:48:37.685Z,11.17
2022-08-12T23:51:22.230Z,10.70
2022-08-12T23:53:56.232Z,11.40
2022-08-12T23:56:26.570Z,11.37
2022-08-12T23:58:55.268Z,10.37
